sensor_id;sensor_type;location;lat;lon;timestamp;P1;durP1;ratioP1;P2;durP2;ratioP2
36629;SDS011;36256;42.154;23.002;2023-03-31T00:02:03;6.55;;;2.83;;
36629;SDS011;36256;42.154;23.002;2023-03-31T00:04:42;7.20;;;3.05;;
36629;SDS011;36256;42.154;23.002;2023-03-31T00:07:18;5.30;;;2.97;;
36629;SDS011;36256;42.154;23.002;2023-03-31T00:09:47;8.18;;;3.53;;
36629;SDS011;36256;42.154;23.002;2023-03-31T00:12:14;6.32;;;3.00;;
36629;SDS011;36256;42.154;23.002;2023-03-31T00:14:42;5.10;;;2.92;;
36629;SDS011;36256;42.154;23.002;2023-03-31T00:17:09;6.72;;;3.75;;
36629;SDS011;36256;42.154;23.002;2023-03-31T00:19:37;7.53;;;3.55;;
36629;SDS011;36256;42.154;23.002;2023-03-31T00:22:05;4.30;;;2.60;;
36629;SDS011;36256;42.154;23.002;2023-03-31T00:24:32;9.75;;;2.90;;
36629;SDS011;36256;42.154;23.002;2023-03-31T00:26:59;5.60;;;3.30;;
36629;SDS011;36256;42.154;23.002;2023-03-31T00:29:27;3.70;;;2.33;;
36629;SDS011;36256;42.154;23.002;2023-03-31T00:31:54;4.32;;;2.28;;
36629;SDS011;36256;42.154;23.002;2023-03-31T00:34:21;3.50;;;2.20;;
36629;SDS011;36256;42.154;23.002;2023-03-31T00:36:47;2.83;;;1.92;;
36629;SDS011;36256;42.154;23.002;2023-03-31T00:39:15;3.00;;;1.90;;
36629;SDS011;36256;42.154;23.002;2023-03-31T00:41:43;5.05;;;1.95;;
36629;SDS011;36256;42.154;23.002;2023-03-31T00:44:14;4.00;;;1.83;;
36629;SDS011;36256;42.154;23.002;2023-03-31T00:46:45;3.60;;;1.95;;
36629;SDS011;36256;42.154;23.002;2023-03-31T00:49:22;5.00;;;2.20;;
36629;SDS011;36256;42.154;23.002;2023-03-31T00:51:50;6.50;;;2.40;;
36629;SDS011;36256;42.154;23.002;2023-03-31T00:54:20;3.47;;;1.90;;
36629;SDS011;36256;42.154;23.002;2023-03-31T00:56:50;4.72;;;2.05;;
36629;SDS011;36256;42.154;23.002;2023-03-31T00:59:21;5.45;;;2.10;;
36629;SDS011;36256;42.154;23.002;2023-03-31T01:01:53;3.97;;;2.03;;
36629;SDS011;36256;42.154;23.002;2023-03-31T01:04:24;4.18;;;2.00;;
36629;SDS011;36256;42.154;23.002;2023-03-31T01:07:15;5.57;;;2.03;;
36629;SDS011;36256;42.154;23.002;2023-03-31T01:10:00;4.97;;;2.10;;
36629;SDS011;36256;42.154;23.002;2023-03-31T01:12:29;3.53;;;1.85;;
36629;SDS011;36256;42.154;23.002;2023-03-31T01:14:59;5.00;;;1.98;;
36629;SDS011;36256;42.154;23.002;2023-03-31T01:17:28;3.63;;;2.13;;
36629;SDS011;36256;42.154;23.002;2023-03-31T01:41:13;3.65;;;2.33;;
36629;SDS011;36256;42.154;23.002;2023-03-31T01:55:35;4.07;;;2.42;;
36629;SDS011;36256;42.154;23.002;2023-03-31T02:01:26;5.30;;;3.10;;
36629;SDS011;36256;42.154;23.002;2023-03-31T02:06:36;3.88;;;2.60;;
36629;SDS011;36256;42.154;23.002;2023-03-31T02:09:09;4.30;;;2.88;;
36629;SDS011;36256;42.154;23.002;2023-03-31T02:11:41;6.47;;;2.60;;
36629;SDS011;36256;42.154;23.002;2023-03-31T02:14:11;5.72;;;3.00;;
36629;SDS011;36256;42.154;23.002;2023-03-31T02:16:43;5.32;;;3.05;;
36629;SDS011;36256;42.154;23.002;2023-03-31T02:19:14;7.15;;;3.50;;
36629;SDS011;36256;42.154;23.002;2023-03-31T02:21:48;7.25;;;3.85;;
36629;SDS011;36256;42.154;23.002;2023-03-31T02:24:16;7.55;;;3.42;;
36629;SDS011;36256;42.154;23.002;2023-03-31T02:29:35;6.80;;;3.97;;
36629;SDS011;36256;42.154;23.002;2023-03-31T02:34:52;7.20;;;3.40;;
36629;SDS011;36256;42.154;23.002;2023-03-31T02:37:20;4.70;;;3.10;;
36629;SDS011;36256;42.154;23.002;2023-03-31T02:39:47;4.85;;;3.05;;
36629;SDS011;36256;42.154;23.002;2023-03-31T02:42:17;7.25;;;3.90;;
36629;SDS011;36256;42.154;23.002;2023-03-31T02:44:44;7.88;;;4.38;;
36629;SDS011;36256;42.154;23.002;2023-03-31T02:47:12;9.90;;;4.75;;
36629;SDS011;36256;42.154;23.002;2023-03-31T02:49:41;10.45;;;4.88;;
36629;SDS011;36256;42.154;23.002;2023-03-31T03:05:42;8.73;;;4.97;;
36629;SDS011;36256;42.154;23.002;2023-03-31T03:16:23;11.15;;;6.72;;
36629;SDS011;36256;42.154;23.002;2023-03-31T03:18:55;9.52;;;6.40;;
36629;SDS011;36256;42.154;23.002;2023-03-31T03:21:22;17.60;;;10.57;;
36629;SDS011;36256;42.154;23.002;2023-03-31T03:23:49;18.85;;;10.90;;
36629;SDS011;36256;42.154;23.002;2023-03-31T03:26:17;13.95;;;8.38;;
36629;SDS011;36256;42.154;23.002;2023-03-31T03:28:55;17.27;;;10.25;;
36629;SDS011;36256;42.154;23.002;2023-03-31T03:31:22;31.17;;;15.45;;
36629;SDS011;36256;42.154;23.002;2023-03-31T03:33:51;71.43;;;31.52;;
36629;SDS011;36256;42.154;23.002;2023-03-31T03:36:18;36.72;;;17.80;;
36629;SDS011;36256;42.154;23.002;2023-03-31T03:38:45;18.08;;;9.32;;
36629;SDS011;36256;42.154;23.002;2023-03-31T03:41:12;17.13;;;9.13;;
36629;SDS011;36256;42.154;23.002;2023-03-31T03:43:39;18.70;;;9.18;;
36629;SDS011;36256;42.154;23.002;2023-03-31T03:46:05;34.90;;;13.90;;
36629;SDS011;36256;42.154;23.002;2023-03-31T03:48:32;27.92;;;11.95;;
36629;SDS011;36256;42.154;23.002;2023-03-31T03:50:59;24.25;;;12.48;;
36629;SDS011;36256;42.154;23.002;2023-03-31T03:53:27;10.35;;;6.63;;
36629;SDS011;36256;42.154;23.002;2023-03-31T03:55:54;12.80;;;7.00;;
36629;SDS011;36256;42.154;23.002;2023-03-31T03:58:21;9.60;;;5.30;;
36629;SDS011;36256;42.154;23.002;2023-03-31T04:00:47;6.82;;;4.13;;
36629;SDS011;36256;42.154;23.002;2023-03-31T04:03:14;7.20;;;4.97;;
36629;SDS011;36256;42.154;23.002;2023-03-31T04:08:08;13.48;;;8.05;;
36629;SDS011;36256;42.154;23.002;2023-03-31T04:10:36;14.63;;;8.32;;
36629;SDS011;36256;42.154;23.002;2023-03-31T04:13:03;13.52;;;8.00;;
36629;SDS011;36256;42.154;23.002;2023-03-31T04:15:30;17.73;;;10.18;;
36629;SDS011;36256;42.154;23.002;2023-03-31T04:17:56;14.45;;;8.77;;
36629;SDS011;36256;42.154;23.002;2023-03-31T04:20:23;17.80;;;9.82;;
36629;SDS011;36256;42.154;23.002;2023-03-31T04:22:56;15.82;;;8.73;;
36629;SDS011;36256;42.154;23.002;2023-03-31T04:25:23;16.65;;;8.50;;
36629;SDS011;36256;42.154;23.002;2023-03-31T04:27:50;15.30;;;7.75;;
36629;SDS011;36256;42.154;23.002;2023-03-31T04:30:24;12.77;;;7.45;;
36629;SDS011;36256;42.154;23.002;2023-03-31T04:33:00;12.60;;;8.38;;
36629;SDS011;36256;42.154;23.002;2023-03-31T04:35:28;13.80;;;8.18;;
36629;SDS011;36256;42.154;23.002;2023-03-31T04:38:08;12.55;;;7.40;;
36629;SDS011;36256;42.154;23.002;2023-03-31T04:40:35;14.13;;;8.27;;
36629;SDS011;36256;42.154;23.002;2023-03-31T04:43:01;14.95;;;8.55;;
36629;SDS011;36256;42.154;23.002;2023-03-31T04:45:28;21.08;;;12.60;;
36629;SDS011;36256;42.154;23.002;2023-03-31T04:47:54;21.65;;;11.60;;
36629;SDS011;36256;42.154;23.002;2023-03-31T04:50:21;17.02;;;10.35;;
36629;SDS011;36256;42.154;23.002;2023-03-31T04:52:48;16.23;;;9.80;;
36629;SDS011;36256;42.154;23.002;2023-03-31T04:55:14;14.20;;;9.93;;
36629;SDS011;36256;42.154;23.002;2023-03-31T04:57:41;19.65;;;12.82;;
36629;SDS011;36256;42.154;23.002;2023-03-31T05:00:08;24.77;;;16.33;;
36629;SDS011;36256;42.154;23.002;2023-03-31T05:02:36;16.90;;;9.18;;
36629;SDS011;36256;42.154;23.002;2023-03-31T05:05:03;9.50;;;6.15;;
36629;SDS011;36256;42.154;23.002;2023-03-31T05:07:29;9.98;;;5.90;;
36629;SDS011;36256;42.154;23.002;2023-03-31T05:09:56;10.73;;;5.63;;
36629;SDS011;36256;42.154;23.002;2023-03-31T05:12:23;8.60;;;5.88;;
36629;SDS011;36256;42.154;23.002;2023-03-31T05:14:50;11.05;;;6.82;;
36629;SDS011;36256;42.154;23.002;2023-03-31T05:17:17;12.15;;;7.75;;
36629;SDS011;36256;42.154;23.002;2023-03-31T05:19:44;8.43;;;6.20;;
36629;SDS011;36256;42.154;23.002;2023-03-31T05:22:10;8.73;;;6.50;;
36629;SDS011;36256;42.154;23.002;2023-03-31T05:24:37;9.52;;;6.90;;
36629;SDS011;36256;42.154;23.002;2023-03-31T05:27:04;6.97;;;4.50;;
36629;SDS011;36256;42.154;23.002;2023-03-31T05:29:31;6.88;;;4.10;;
36629;SDS011;36256;42.154;23.002;2023-03-31T05:31:57;7.30;;;4.57;;
36629;SDS011;36256;42.154;23.002;2023-03-31T05:34:24;7.20;;;4.77;;
36629;SDS011;36256;42.154;23.002;2023-03-31T05:36:50;13.50;;;6.10;;
36629;SDS011;36256;42.154;23.002;2023-03-31T05:39:19;30.13;;;18.40;;
36629;SDS011;36256;42.154;23.002;2023-03-31T05:44:13;60.92;;;38.10;;
36629;SDS011;36256;42.154;23.002;2023-03-31T05:46:39;39.53;;;22.92;;
36629;SDS011;36256;42.154;23.002;2023-03-31T05:49:07;76.57;;;38.50;;
36629;SDS011;36256;42.154;23.002;2023-03-31T05:51:34;19.37;;;10.03;;
36629;SDS011;36256;42.154;23.002;2023-03-31T05:54:00;8.37;;;4.87;;
36629;SDS011;36256;42.154;23.002;2023-03-31T05:56:27;6.30;;;3.80;;
36629;SDS011;36256;42.154;23.002;2023-03-31T05:58:53;4.82;;;3.50;;
36629;SDS011;36256;42.154;23.002;2023-03-31T06:01:20;6.77;;;3.63;;
36629;SDS011;36256;42.154;23.002;2023-03-31T06:03:48;12.15;;;6.65;;
36629;SDS011;36256;42.154;23.002;2023-03-31T06:06:15;11.00;;;6.40;;
36629;SDS011;36256;42.154;23.002;2023-03-31T06:08:43;9.15;;;6.05;;
36629;SDS011;36256;42.154;23.002;2023-03-31T06:11:12;6.28;;;3.50;;
36629;SDS011;36256;42.154;23.002;2023-03-31T06:13:41;6.60;;;3.90;;
36629;SDS011;36256;42.154;23.002;2023-03-31T06:16:09;9.02;;;3.92;;
36629;SDS011;36256;42.154;23.002;2023-03-31T06:18:37;24.38;;;8.50;;
36629;SDS011;36256;42.154;23.002;2023-03-31T06:21:05;20.70;;;7.13;;
36629;SDS011;36256;42.154;23.002;2023-03-31T06:23:32;12.02;;;3.15;;
36629;SDS011;36256;42.154;23.002;2023-03-31T06:26:00;7.05;;;3.65;;
36629;SDS011;36256;42.154;23.002;2023-03-31T06:28:29;5.25;;;4.03;;
36629;SDS011;36256;42.154;23.002;2023-03-31T06:31:00;5.85;;;3.08;;
36629;SDS011;36256;42.154;23.002;2023-03-31T06:33:27;6.05;;;3.25;;
36629;SDS011;36256;42.154;23.002;2023-03-31T06:35:54;5.57;;;3.03;;
36629;SDS011;36256;42.154;23.002;2023-03-31T06:38:22;3.97;;;2.65;;
36629;SDS011;36256;42.154;23.002;2023-03-31T06:40:49;5.95;;;2.92;;
36629;SDS011;36256;42.154;23.002;2023-03-31T06:43:16;5.65;;;3.05;;
36629;SDS011;36256;42.154;23.002;2023-03-31T06:45:42;6.57;;;3.05;;
36629;SDS011;36256;42.154;23.002;2023-03-31T06:48:09;6.40;;;2.90;;
36629;SDS011;36256;42.154;23.002;2023-03-31T06:50:37;3.85;;;2.70;;
36629;SDS011;36256;42.154;23.002;2023-03-31T06:53:04;4.68;;;3.40;;
36629;SDS011;36256;42.154;23.002;2023-03-31T06:55:31;7.45;;;3.70;;
36629;SDS011;36256;42.154;23.002;2023-03-31T06:57:59;8.80;;;4.85;;
36629;SDS011;36256;42.154;23.002;2023-03-31T07:00:25;11.35;;;4.57;;
36629;SDS011;36256;42.154;23.002;2023-03-31T07:02:53;6.35;;;3.30;;
36629;SDS011;36256;42.154;23.002;2023-03-31T07:07:56;4.03;;;2.30;;
36629;SDS011;36256;42.154;23.002;2023-03-31T07:10:25;4.72;;;2.22;;
36629;SDS011;36256;42.154;23.002;2023-03-31T07:12:54;7.47;;;2.83;;
36629;SDS011;36256;42.154;23.002;2023-03-31T07:15:21;22.80;;;10.55;;
36629;SDS011;36256;42.154;23.002;2023-03-31T07:17:48;6.95;;;3.70;;
36629;SDS011;36256;42.154;23.002;2023-03-31T07:20:17;4.35;;;2.20;;
36629;SDS011;36256;42.154;23.002;2023-03-31T07:22:45;4.18;;;2.53;;
36629;SDS011;36256;42.154;23.002;2023-03-31T07:25:14;6.53;;;2.92;;
36629;SDS011;36256;42.154;23.002;2023-03-31T07:27:42;7.47;;;4.32;;
36629;SDS011;36256;42.154;23.002;2023-03-31T07:30:13;4.13;;;2.83;;
36629;SDS011;36256;42.154;23.002;2023-03-31T07:32:42;5.72;;;2.65;;
36629;SDS011;36256;42.154;23.002;2023-03-31T07:35:09;8.40;;;4.50;;
36629;SDS011;36256;42.154;23.002;2023-03-31T07:37:37;10.65;;;6.22;;
36629;SDS011;36256;42.154;23.002;2023-03-31T07:40:07;38.88;;;19.60;;
36629;SDS011;36256;42.154;23.002;2023-03-31T07:42:36;6.65;;;2.88;;
36629;SDS011;36256;42.154;23.002;2023-03-31T07:45:02;6.47;;;2.45;;
36629;SDS011;36256;42.154;23.002;2023-03-31T07:47:31;9.18;;;4.75;;
36629;SDS011;36256;42.154;23.002;2023-03-31T07:49:58;5.72;;;3.50;;
36629;SDS011;36256;42.154;23.002;2023-03-31T07:52:24;6.45;;;3.22;;
36629;SDS011;36256;42.154;23.002;2023-03-31T07:54:51;4.50;;;2.65;;
36629;SDS011;36256;42.154;23.002;2023-03-31T07:57:18;5.72;;;2.25;;
36629;SDS011;36256;42.154;23.002;2023-03-31T07:59:45;3.95;;;1.80;;
36629;SDS011;36256;42.154;23.002;2023-03-31T08:02:13;3.90;;;2.22;;
36629;SDS011;36256;42.154;23.002;2023-03-31T08:04:42;4.68;;;2.80;;
36629;SDS011;36256;42.154;23.002;2023-03-31T08:07:10;5.95;;;3.40;;
36629;SDS011;36256;42.154;23.002;2023-03-31T08:09:38;6.38;;;3.45;;
36629;SDS011;36256;42.154;23.002;2023-03-31T08:12:06;5.25;;;3.00;;
36629;SDS011;36256;42.154;23.002;2023-03-31T08:14:32;3.97;;;2.60;;
36629;SDS011;36256;42.154;23.002;2023-03-31T08:17:06;5.07;;;2.65;;
36629;SDS011;36256;42.154;23.002;2023-03-31T08:22:00;4.35;;;1.90;;
36629;SDS011;36256;42.154;23.002;2023-03-31T08:24:28;4.55;;;1.60;;
36629;SDS011;36256;42.154;23.002;2023-03-31T08:26:54;3.55;;;1.63;;
36629;SDS011;36256;42.154;23.002;2023-03-31T08:29:21;3.22;;;1.60;;
36629;SDS011;36256;42.154;23.002;2023-03-31T08:31:47;3.20;;;1.50;;
36629;SDS011;36256;42.154;23.002;2023-03-31T08:34:14;4.15;;;1.77;;
36629;SDS011;36256;42.154;23.002;2023-03-31T08:36:41;3.65;;;1.55;;
36629;SDS011;36256;42.154;23.002;2023-03-31T08:39:08;5.38;;;1.63;;
36629;SDS011;36256;42.154;23.002;2023-03-31T08:44:36;2.22;;;1.40;;
36629;SDS011;36256;42.154;23.002;2023-03-31T08:47:20;7.38;;;1.85;;
36629;SDS011;36256;42.154;23.002;2023-03-31T08:49:50;5.20;;;1.58;;
36629;SDS011;36256;42.154;23.002;2023-03-31T08:52:23;4.07;;;1.80;;
36629;SDS011;36256;42.154;23.002;2023-03-31T08:55:05;3.28;;;1.38;;
36629;SDS011;36256;42.154;23.002;2023-03-31T08:57:56;4.60;;;1.58;;
36629;SDS011;36256;42.154;23.002;2023-03-31T09:00:30;3.35;;;1.60;;
36629;SDS011;36256;42.154;23.002;2023-03-31T09:03:13;8.70;;;1.83;;
36629;SDS011;36256;42.154;23.002;2023-03-31T09:05:58;2.35;;;1.50;;
36629;SDS011;36256;42.154;23.002;2023-03-31T09:08:46;16.10;;;2.08;;
36629;SDS011;36256;42.154;23.002;2023-03-31T09:16:57;7.03;;;2.30;;
36629;SDS011;36256;42.154;23.002;2023-03-31T09:19:44;4.65;;;2.00;;
36629;SDS011;36256;42.154;23.002;2023-03-31T09:22:19;3.10;;;1.80;;
36629;SDS011;36256;42.154;23.002;2023-03-31T09:24:51;4.35;;;1.75;;
36629;SDS011;36256;42.154;23.002;2023-03-31T09:27:23;4.63;;;1.90;;
36629;SDS011;36256;42.154;23.002;2023-03-31T09:30:27;7.65;;;4.70;;
36629;SDS011;36256;42.154;23.002;2023-03-31T09:32:48;4.75;;;2.42;;
36629;SDS011;36256;42.154;23.002;2023-03-31T09:35:30;7.28;;;2.30;;
36629;SDS011;36256;42.154;23.002;2023-03-31T09:37:59;7.22;;;2.42;;
36629;SDS011;36256;42.154;23.002;2023-03-31T09:40:26;5.47;;;1.77;;
36629;SDS011;36256;42.154;23.002;2023-03-31T09:43:00;4.93;;;2.30;;
36629;SDS011;36256;42.154;23.002;2023-03-31T09:45:31;5.85;;;2.70;;
36629;SDS011;36256;42.154;23.002;2023-03-31T09:48:06;6.32;;;2.72;;
36629;SDS011;36256;42.154;23.002;2023-03-31T09:50:42;3.85;;;2.58;;
36629;SDS011;36256;42.154;23.002;2023-03-31T09:53:15;6.35;;;2.30;;
36629;SDS011;36256;42.154;23.002;2023-03-31T09:55:51;5.07;;;2.50;;
36629;SDS011;36256;42.154;23.002;2023-03-31T09:58:19;9.35;;;4.93;;
36629;SDS011;36256;42.154;23.002;2023-03-31T10:00:57;4.53;;;2.00;;
36629;SDS011;36256;42.154;23.002;2023-03-31T10:03:27;4.43;;;2.30;;
36629;SDS011;36256;42.154;23.002;2023-03-31T10:05:56;3.92;;;2.10;;
36629;SDS011;36256;42.154;23.002;2023-03-31T10:08:26;4.93;;;1.98;;
36629;SDS011;36256;42.154;23.002;2023-03-31T10:13:34;8.00;;;3.67;;
36629;SDS011;36256;42.154;23.002;2023-03-31T10:16:09;4.53;;;2.28;;
36629;SDS011;36256;42.154;23.002;2023-03-31T10:18:39;4.07;;;2.38;;
36629;SDS011;36256;42.154;23.002;2023-03-31T10:21:21;4.53;;;1.98;;
36629;SDS011;36256;42.154;23.002;2023-03-31T10:23:53;8.32;;;2.63;;
36629;SDS011;36256;42.154;23.002;2023-03-31T10:26:21;8.15;;;2.72;;
36629;SDS011;36256;42.154;23.002;2023-03-31T10:28:52;8.85;;;2.40;;
36629;SDS011;36256;42.154;23.002;2023-03-31T10:31:23;4.13;;;2.90;;
36629;SDS011;36256;42.154;23.002;2023-03-31T10:33:52;7.05;;;2.70;;
36629;SDS011;36256;42.154;23.002;2023-03-31T10:38:46;5.77;;;2.47;;
36629;SDS011;36256;42.154;23.002;2023-03-31T10:41:18;7.72;;;2.70;;
36629;SDS011;36256;42.154;23.002;2023-03-31T10:43:53;5.40;;;2.08;;
36629;SDS011;36256;42.154;23.002;2023-03-31T10:46:38;6.55;;;2.00;;
36629;SDS011;36256;42.154;23.002;2023-03-31T10:49:13;3.13;;;1.63;;
36629;SDS011;36256;42.154;23.002;2023-03-31T10:51:57;6.70;;;1.90;;
36629;SDS011;36256;42.154;23.002;2023-03-31T10:54:25;4.20;;;2.20;;
36629;SDS011;36256;42.154;23.002;2023-03-31T10:56:56;8.80;;;2.10;;
36629;SDS011;36256;42.154;23.002;2023-03-31T11:13:37;4.60;;;1.65;;
36629;SDS011;36256;42.154;23.002;2023-03-31T11:16:56;3.70;;;2.00;;
36629;SDS011;36256;42.154;23.002;2023-03-31T11:38:12;6.47;;;2.80;;
36629;SDS011;36256;42.154;23.002;2023-03-31T11:43:53;6.30;;;1.70;;
36629;SDS011;36256;42.154;23.002;2023-03-31T11:46:45;4.85;;;1.38;;
36629;SDS011;36256;42.154;23.002;2023-03-31T11:49:24;3.13;;;1.70;;
36629;SDS011;36256;42.154;23.002;2023-03-31T11:51:54;2.78;;;1.63;;
36629;SDS011;36256;42.154;23.002;2023-03-31T11:54:29;3.40;;;1.48;;
36629;SDS011;36256;42.154;23.002;2023-03-31T11:57:01;3.75;;;1.67;;
36629;SDS011;36256;42.154;23.002;2023-03-31T11:59:38;5.35;;;1.55;;
36629;SDS011;36256;42.154;23.002;2023-03-31T12:04:43;5.28;;;1.52;;
36629;SDS011;36256;42.154;23.002;2023-03-31T12:12:44;5.60;;;2.05;;
36629;SDS011;36256;42.154;23.002;2023-03-31T12:15:21;2.72;;;1.50;;
36629;SDS011;36256;42.154;23.002;2023-03-31T12:20:58;2.07;;;1.40;;
36629;SDS011;36256;42.154;23.002;2023-03-31T12:23:32;3.78;;;1.58;;
36629;SDS011;36256;42.154;23.002;2023-03-31T12:29:06;3.47;;;1.33;;
36629;SDS011;36256;42.154;23.002;2023-03-31T12:31:44;2.95;;;1.50;;
36629;SDS011;36256;42.154;23.002;2023-03-31T12:34:13;7.88;;;2.20;;
36629;SDS011;36256;42.154;23.002;2023-03-31T12:42:39;5.93;;;1.90;;
36629;SDS011;36256;42.154;23.002;2023-03-31T12:48:19;3.78;;;1.80;;
36629;SDS011;36256;42.154;23.002;2023-03-31T13:00:26;13.68;;;6.00;;
36629;SDS011;36256;42.154;23.002;2023-03-31T13:02:42;3.75;;;1.80;;
36629;SDS011;36256;42.154;23.002;2023-03-31T13:08:03;6.43;;;1.80;;
36629;SDS011;36256;42.154;23.002;2023-03-31T13:15:27;4.38;;;1.55;;
36629;SDS011;36256;42.154;23.002;2023-03-31T13:18:01;5.03;;;2.20;;
36629;SDS011;36256;42.154;23.002;2023-03-31T13:23:16;4.22;;;1.70;;
36629;SDS011;36256;42.154;23.002;2023-03-31T13:25:46;9.27;;;1.92;;
36629;SDS011;36256;42.154;23.002;2023-03-31T13:28:16;5.82;;;1.77;;
36629;SDS011;36256;42.154;23.002;2023-03-31T13:33:29;5.25;;;1.40;;
36629;SDS011;36256;42.154;23.002;2023-03-31T13:36:18;5.05;;;2.10;;
36629;SDS011;36256;42.154;23.002;2023-03-31T13:51:08;12.32;;;5.57;;
36629;SDS011;36256;42.154;23.002;2023-03-31T13:56:55;6.78;;;1.92;;
36629;SDS011;36256;42.154;23.002;2023-03-31T14:07:34;7.28;;;2.95;;
36629;SDS011;36256;42.154;23.002;2023-03-31T14:13:14;7.95;;;1.70;;
36629;SDS011;36256;42.154;23.002;2023-03-31T14:15:51;4.57;;;1.63;;
36629;SDS011;36256;42.154;23.002;2023-03-31T14:18:24;5.07;;;1.60;;
36629;SDS011;36256;42.154;23.002;2023-03-31T14:27:23;5.90;;;1.65;;
36629;SDS011;36256;42.154;23.002;2023-03-31T14:29:38;5.80;;;1.90;;
36629;SDS011;36256;42.154;23.002;2023-03-31T14:38:05;10.82;;;2.38;;
36629;SDS011;36256;42.154;23.002;2023-03-31T14:40:48;3.05;;;1.70;;
36629;SDS011;36256;42.154;23.002;2023-03-31T14:43:19;5.82;;;1.67;;
36629;SDS011;36256;42.154;23.002;2023-03-31T14:46:02;3.33;;;1.70;;
36629;SDS011;36256;42.154;23.002;2023-03-31T14:48:32;4.80;;;1.80;;
36629;SDS011;36256;42.154;23.002;2023-03-31T14:51:01;2.80;;;1.55;;
36629;SDS011;36256;42.154;23.002;2023-03-31T14:53:29;4.93;;;1.90;;
36629;SDS011;36256;42.154;23.002;2023-03-31T14:55:59;5.60;;;1.83;;
36629;SDS011;36256;42.154;23.002;2023-03-31T14:58:30;6.53;;;2.22;;
36629;SDS011;36256;42.154;23.002;2023-03-31T15:01:01;3.90;;;1.67;;
36629;SDS011;36256;42.154;23.002;2023-03-31T15:03:30;5.97;;;1.80;;
36629;SDS011;36256;42.154;23.002;2023-03-31T15:05:58;9.50;;;1.80;;
36629;SDS011;36256;42.154;23.002;2023-03-31T15:08:28;5.78;;;2.42;;
36629;SDS011;36256;42.154;23.002;2023-03-31T15:10:57;10.60;;;4.53;;
36629;SDS011;36256;42.154;23.002;2023-03-31T15:13:39;5.43;;;1.98;;
36629;SDS011;36256;42.154;23.002;2023-03-31T15:19:14;6.03;;;2.17;;
36629;SDS011;36256;42.154;23.002;2023-03-31T15:21:54;4.85;;;1.75;;
36629;SDS011;36256;42.154;23.002;2023-03-31T15:24:28;6.05;;;2.10;;
36629;SDS011;36256;42.154;23.002;2023-03-31T15:26:56;9.48;;;2.13;;
36629;SDS011;36256;42.154;23.002;2023-03-31T15:32:14;5.35;;;1.80;;
36629;SDS011;36256;42.154;23.002;2023-03-31T15:34:53;4.60;;;1.75;;
36629;SDS011;36256;42.154;23.002;2023-03-31T15:37:23;3.88;;;1.70;;
36629;SDS011;36256;42.154;23.002;2023-03-31T15:39:54;6.45;;;1.85;;
36629;SDS011;36256;42.154;23.002;2023-03-31T15:42:23;4.68;;;1.77;;
36629;SDS011;36256;42.154;23.002;2023-03-31T15:47:22;5.78;;;2.00;;
36629;SDS011;36256;42.154;23.002;2023-03-31T15:50:07;11.48;;;4.25;;
36629;SDS011;36256;42.154;23.002;2023-03-31T15:52:45;10.20;;;4.35;;
36629;SDS011;36256;42.154;23.002;2023-03-31T15:57:52;9.40;;;3.95;;
36629;SDS011;36256;42.154;23.002;2023-03-31T16:03:15;8.73;;;4.10;;
36629;SDS011;36256;42.154;23.002;2023-03-31T16:06:21;13.90;;;7.55;;
36629;SDS011;36256;42.154;23.002;2023-03-31T16:08:43;11.75;;;5.68;;
36629;SDS011;36256;42.154;23.002;2023-03-31T16:11:18;11.13;;;3.33;;
36629;SDS011;36256;42.154;23.002;2023-03-31T16:13:54;8.02;;;4.25;;
36629;SDS011;36256;42.154;23.002;2023-03-31T16:16:25;11.45;;;5.00;;
36629;SDS011;36256;42.154;23.002;2023-03-31T16:18:59;9.50;;;5.57;;
36629;SDS011;36256;42.154;23.002;2023-03-31T16:21:53;8.23;;;4.57;;
36629;SDS011;36256;42.154;23.002;2023-03-31T16:24:28;10.90;;;4.80;;
36629;SDS011;36256;42.154;23.002;2023-03-31T16:27:01;11.13;;;3.90;;
36629;SDS011;36256;42.154;23.002;2023-03-31T16:29:35;9.30;;;3.00;;
36629;SDS011;36256;42.154;23.002;2023-03-31T16:32:21;12.75;;;3.03;;
36629;SDS011;36256;42.154;23.002;2023-03-31T16:37:23;7.03;;;2.50;;
36629;SDS011;36256;42.154;23.002;2023-03-31T16:42:18;16.70;;;3.55;;
36629;SDS011;36256;42.154;23.002;2023-03-31T16:44:47;9.35;;;4.18;;
36629;SDS011;36256;42.154;23.002;2023-03-31T16:47:34;11.13;;;6.35;;
36629;SDS011;36256;42.154;23.002;2023-03-31T16:50:02;14.90;;;6.63;;
36629;SDS011;36256;42.154;23.002;2023-03-31T16:52:32;17.85;;;8.50;;
36629;SDS011;36256;42.154;23.002;2023-03-31T16:55:01;31.92;;;16.02;;
36629;SDS011;36256;42.154;23.002;2023-03-31T16:57:27;18.57;;;10.43;;
36629;SDS011;36256;42.154;23.002;2023-03-31T16:59:54;20.85;;;12.23;;
36629;SDS011;36256;42.154;23.002;2023-03-31T17:02:24;24.13;;;13.63;;
36629;SDS011;36256;42.154;23.002;2023-03-31T17:04:50;22.75;;;13.27;;
36629;SDS011;36256;42.154;23.002;2023-03-31T17:07:21;27.98;;;11.00;;
36629;SDS011;36256;42.154;23.002;2023-03-31T17:09:48;20.90;;;9.20;;
36629;SDS011;36256;42.154;23.002;2023-03-31T17:12:15;20.37;;;10.07;;
36629;SDS011;36256;42.154;23.002;2023-03-31T17:14:41;19.00;;;11.52;;
36629;SDS011;36256;42.154;23.002;2023-03-31T17:17:08;33.43;;;20.20;;
36629;SDS011;36256;42.154;23.002;2023-03-31T17:19:34;36.28;;;19.55;;
36629;SDS011;36256;42.154;23.002;2023-03-31T17:22:01;25.13;;;15.83;;
36629;SDS011;36256;42.154;23.002;2023-03-31T17:26:55;21.27;;;12.02;;
36629;SDS011;36256;42.154;23.002;2023-03-31T17:31:50;22.30;;;10.48;;
36629;SDS011;36256;42.154;23.002;2023-03-31T17:34:16;17.52;;;10.43;;
36629;SDS011;36256;42.154;23.002;2023-03-31T17:36:43;16.80;;;8.85;;
36629;SDS011;36256;42.154;23.002;2023-03-31T17:39:10;24.45;;;12.18;;
36629;SDS011;36256;42.154;23.002;2023-03-31T17:41:37;20.95;;;8.10;;
36629;SDS011;36256;42.154;23.002;2023-03-31T17:44:03;14.90;;;7.60;;
36629;SDS011;36256;42.154;23.002;2023-03-31T17:46:33;16.83;;;8.80;;
36629;SDS011;36256;42.154;23.002;2023-03-31T17:49:00;11.82;;;6.95;;
36629;SDS011;36256;42.154;23.002;2023-03-31T17:51:26;19.53;;;9.37;;
36629;SDS011;36256;42.154;23.002;2023-03-31T17:53:54;17.48;;;9.40;;
36629;SDS011;36256;42.154;23.002;2023-03-31T17:58:48;9.48;;;5.13;;
36629;SDS011;36256;42.154;23.002;2023-03-31T18:01:14;9.65;;;4.05;;
36629;SDS011;36256;42.154;23.002;2023-03-31T18:03:41;6.20;;;3.50;;
36629;SDS011;36256;42.154;23.002;2023-03-31T18:06:10;8.13;;;3.38;;
36629;SDS011;36256;42.154;23.002;2023-03-31T18:08:38;22.60;;;12.18;;
36629;SDS011;36256;42.154;23.002;2023-03-31T18:11:07;21.77;;;12.50;;
36629;SDS011;36256;42.154;23.002;2023-03-31T18:13:35;29.02;;;15.35;;
36629;SDS011;36256;42.154;23.002;2023-03-31T18:16:03;24.85;;;14.07;;
36629;SDS011;36256;42.154;23.002;2023-03-31T18:18:30;32.53;;;20.70;;
36629;SDS011;36256;42.154;23.002;2023-03-31T18:21:01;33.25;;;20.08;;
36629;SDS011;36256;42.154;23.002;2023-03-31T18:23:29;30.00;;;18.05;;
36629;SDS011;36256;42.154;23.002;2023-03-31T18:28:24;44.97;;;23.25;;
36629;SDS011;36256;42.154;23.002;2023-03-31T18:30:50;40.08;;;25.38;;
36629;SDS011;36256;42.154;23.002;2023-03-31T18:33:18;31.65;;;19.17;;
36629;SDS011;36256;42.154;23.002;2023-03-31T18:35:45;21.20;;;12.13;;
36629;SDS011;36256;42.154;23.002;2023-03-31T18:38:12;26.58;;;13.02;;
36629;SDS011;36256;42.154;23.002;2023-03-31T18:40:39;26.38;;;13.68;;
36629;SDS011;36256;42.154;23.002;2023-03-31T18:43:13;23.02;;;14.18;;
36629;SDS011;36256;42.154;23.002;2023-03-31T18:45:39;22.33;;;11.90;;
36629;SDS011;36256;42.154;23.002;2023-03-31T18:48:06;30.48;;;18.33;;